sensor_id;sensor_type;location;lat;lon;timestamp;P1;durP1;ratioP1;P2;durP2;ratioP2
828;SDS011;396;52.558;13.188;2023-05-14T00:02:14;11.00;;;5.83;;
828;SDS011;396;52.558;13.188;2023-05-14T00:04:41;11.20;;;4.87;;
828;SDS011;396;52.558;13.188;2023-05-14T00:07:07;9.67;;;4.83;;
828;SDS011;396;52.558;13.188;2023-05-14T00:09:34;8.97;;;4.47;;
828;SDS011;396;52.558;13.188;2023-05-14T00:12:01;11.00;;;6.03;;
828;SDS011;396;52.558;13.188;2023-05-14T00:14:27;11.87;;;6.07;;
828;SDS011;396;52.558;13.188;2023-05-14T00:16:54;10.87;;;5.57;;
828;SDS011;396;52.558;13.188;2023-05-14T00:19:22;12.47;;;5.07;;
828;SDS011;396;52.558;13.188;2023-05-14T00:21:48;9.30;;;4.90;;
828;SDS011;396;52.558;13.188;2023-05-14T00:24:15;9.77;;;4.50;;
828;SDS011;396;52.558;13.188;2023-05-14T00:26:42;11.27;;;4.83;;
828;SDS011;396;52.558;13.188;2023-05-14T00:29:08;14.73;;;5.50;;
828;SDS011;396;52.558;13.188;2023-05-14T00:31:35;14.07;;;6.13;;
828;SDS011;396;52.558;13.188;2023-05-14T00:34:01;9.13;;;4.60;;
828;SDS011;396;52.558;13.188;2023-05-14T00:36:29;8.70;;;4.60;;
828;SDS011;396;52.558;13.188;2023-05-14T00:38:56;9.83;;;4.77;;
828;SDS011;396;52.558;13.188;2023-05-14T00:41:23;10.63;;;5.53;;
828;SDS011;396;52.558;13.188;2023-05-14T00:43:49;11.13;;;5.77;;
828;SDS011;396;52.558;13.188;2023-05-14T00:46:16;10.23;;;5.03;;
828;SDS011;396;52.558;13.188;2023-05-14T00:48:43;8.87;;;4.93;;
828;SDS011;396;52.558;13.188;2023-05-14T00:51:10;9.47;;;5.33;;
828;SDS011;396;52.558;13.188;2023-05-14T00:53:38;10.20;;;5.30;;
828;SDS011;396;52.558;13.188;2023-05-14T00:56:05;10.43;;;5.27;;
828;SDS011;396;52.558;13.188;2023-05-14T00:58:32;11.00;;;4.83;;
828;SDS011;396;52.558;13.188;2023-05-14T01:00:59;11.37;;;5.60;;
828;SDS011;396;52.558;13.188;2023-05-14T01:03:25;11.47;;;5.17;;
828;SDS011;396;52.558;13.188;2023-05-14T01:05:55;11.50;;;5.80;;
828;SDS011;396;52.558;13.188;2023-05-14T01:08:31;12.57;;;6.20;;
828;SDS011;396;52.558;13.188;2023-05-14T01:11:12;14.17;;;5.07;;
828;SDS011;396;52.558;13.188;2023-05-14T01:13:47;9.73;;;4.93;;
828;SDS011;396;52.558;13.188;2023-05-14T01:16:24;8.70;;;4.80;;
828;SDS011;396;52.558;13.188;2023-05-14T01:18:52;9.37;;;4.90;;
828;SDS011;396;52.558;13.188;2023-05-14T01:21:26;9.77;;;4.97;;
828;SDS011;396;52.558;13.188;2023-05-14T01:24:01;9.70;;;4.50;;
828;SDS011;396;52.558;13.188;2023-05-14T01:26:27;11.23;;;5.13;;
828;SDS011;396;52.558;13.188;2023-05-14T01:28:55;9.97;;;5.17;;
828;SDS011;396;52.558;13.188;2023-05-14T01:31:26;13.40;;;6.50;;
828;SDS011;396;52.558;13.188;2023-05-14T01:33:56;11.67;;;5.30;;
828;SDS011;396;52.558;13.188;2023-05-14T01:36:25;15.40;;;5.73;;
828;SDS011;396;52.558;13.188;2023-05-14T01:38:53;11.40;;;5.07;;
828;SDS011;396;52.558;13.188;2023-05-14T01:41:21;10.10;;;5.07;;
828;SDS011;396;52.558;13.188;2023-05-14T01:43:50;11.37;;;5.60;;
828;SDS011;396;52.558;13.188;2023-05-14T01:46:17;11.30;;;5.97;;
828;SDS011;396;52.558;13.188;2023-05-14T01:48:44;11.73;;;5.03;;
828;SDS011;396;52.558;13.188;2023-05-14T01:51:11;9.87;;;5.50;;
828;SDS011;396;52.558;13.188;2023-05-14T01:53:40;10.30;;;5.37;;
828;SDS011;396;52.558;13.188;2023-05-14T01:56:06;9.77;;;4.80;;
828;SDS011;396;52.558;13.188;2023-05-14T01:58:33;11.07;;;5.27;;
828;SDS011;396;52.558;13.188;2023-05-14T02:01:00;11.07;;;5.60;;
828;SDS011;396;52.558;13.188;2023-05-14T02:03:26;11.60;;;5.00;;
828;SDS011;396;52.558;13.188;2023-05-14T02:05:53;15.70;;;6.17;;
828;SDS011;396;52.558;13.188;2023-05-14T02:08:19;10.23;;;5.13;;
828;SDS011;396;52.558;13.188;2023-05-14T02:10:47;13.70;;;6.10;;
828;SDS011;396;52.558;13.188;2023-05-14T02:13:14;17.13;;;6.73;;
828;SDS011;396;52.558;13.188;2023-05-14T02:15:41;11.70;;;6.00;;
828;SDS011;396;52.558;13.188;2023-05-14T02:18:08;9.77;;;5.20;;
828;SDS011;396;52.558;13.188;2023-05-14T02:20:34;14.10;;;6.37;;
828;SDS011;396;52.558;13.188;2023-05-14T02:23:01;9.93;;;5.90;;
828;SDS011;396;52.558;13.188;2023-05-14T02:25:27;16.07;;;5.97;;
828;SDS011;396;52.558;13.188;2023-05-14T02:27:55;12.27;;;5.30;;
828;SDS011;396;52.558;13.188;2023-05-14T02:30:22;13.23;;;6.63;;
828;SDS011;396;52.558;13.188;2023-05-14T02:32:48;10.80;;;4.83;;
828;SDS011;396;52.558;13.188;2023-05-14T02:35:15;12.73;;;6.10;;
828;SDS011;396;52.558;13.188;2023-05-14T02:37:42;15.20;;;5.60;;
828;SDS011;396;52.558;13.188;2023-05-14T02:40:09;14.70;;;5.83;;
828;SDS011;396;52.558;13.188;2023-05-14T02:42:36;11.33;;;6.30;;
828;SDS011;396;52.558;13.188;2023-05-14T02:45:04;11.43;;;5.70;;
828;SDS011;396;52.558;13.188;2023-05-14T02:47:32;9.70;;;5.20;;
828;SDS011;396;52.558;13.188;2023-05-14T02:49:58;12.17;;;5.07;;
828;SDS011;396;52.558;13.188;2023-05-14T02:52:25;12.80;;;5.77;;
828;SDS011;396;52.558;13.188;2023-05-14T02:54:51;13.43;;;5.73;;
828;SDS011;396;52.558;13.188;2023-05-14T02:57:18;13.73;;;5.53;;
828;SDS011;396;52.558;13.188;2023-05-14T02:59:45;10.27;;;5.50;;
828;SDS011;396;52.558;13.188;2023-05-14T03:02:13;10.23;;;5.57;;
828;SDS011;396;52.558;13.188;2023-05-14T03:04:39;13.03;;;6.20;;
828;SDS011;396;52.558;13.188;2023-05-14T03:07:06;11.80;;;5.50;;
828;SDS011;396;52.558;13.188;2023-05-14T03:09:32;9.30;;;5.73;;
828;SDS011;396;52.558;13.188;2023-05-14T03:11:59;10.77;;;6.03;;
828;SDS011;396;52.558;13.188;2023-05-14T03:14:26;13.20;;;6.10;;
828;SDS011;396;52.558;13.188;2023-05-14T03:16:52;8.67;;;4.37;;
828;SDS011;396;52.558;13.188;2023-05-14T03:19:20;8.47;;;4.60;;
828;SDS011;396;52.558;13.188;2023-05-14T03:21:47;11.20;;;5.53;;
828;SDS011;396;52.558;13.188;2023-05-14T03:24:14;15.80;;;7.00;;
828;SDS011;396;52.558;13.188;2023-05-14T03:26:40;9.93;;;5.20;;
828;SDS011;396;52.558;13.188;2023-05-14T03:29:07;11.73;;;5.23;;
828;SDS011;396;52.558;13.188;2023-05-14T03:31:34;9.90;;;5.50;;
828;SDS011;396;52.558;13.188;2023-05-14T03:34:01;10.37;;;5.80;;
828;SDS011;396;52.558;13.188;2023-05-14T03:36:29;14.27;;;6.03;;
828;SDS011;396;52.558;13.188;2023-05-14T03:38:56;10.63;;;5.20;;
828;SDS011;396;52.558;13.188;2023-05-14T03:41:22;12.80;;;6.20;;
828;SDS011;396;52.558;13.188;2023-05-14T03:43:49;11.97;;;6.07;;
828;SDS011;396;52.558;13.188;2023-05-14T03:46:15;9.87;;;5.73;;
828;SDS011;396;52.558;13.188;2023-05-14T03:48:42;13.30;;;6.13;;
828;SDS011;396;52.558;13.188;2023-05-14T03:51:09;13.13;;;5.53;;
828;SDS011;396;52.558;13.188;2023-05-14T03:53:37;10.70;;;5.30;;
828;SDS011;396;52.558;13.188;2023-05-14T03:56:03;9.87;;;5.10;;
828;SDS011;396;52.558;13.188;2023-05-14T03:58:30;10.40;;;5.30;;
828;SDS011;396;52.558;13.188;2023-05-14T04:00:57;11.10;;;5.87;;
828;SDS011;396;52.558;13.188;2023-05-14T04:03:24;12.70;;;5.60;;
828;SDS011;396;52.558;13.188;2023-05-14T04:05:50;15.00;;;5.83;;
828;SDS011;396;52.558;13.188;2023-05-14T04:08:17;9.90;;;5.47;;
828;SDS011;396;52.558;13.188;2023-05-14T04:10:45;12.00;;;5.30;;
828;SDS011;396;52.558;13.188;2023-05-14T04:13:11;8.93;;;5.00;;
828;SDS011;396;52.558;13.188;2023-05-14T04:15:38;11.80;;;5.30;;
828;SDS011;396;52.558;13.188;2023-05-14T04:18:05;11.20;;;5.40;;
828;SDS011;396;52.558;13.188;2023-05-14T04:20:31;19.40;;;6.23;;
828;SDS011;396;52.558;13.188;2023-05-14T04:22:58;11.40;;;5.20;;
828;SDS011;396;52.558;13.188;2023-05-14T04:25:24;9.40;;;5.17;;
828;SDS011;396;52.558;13.188;2023-05-14T04:27:52;10.90;;;5.70;;
828;SDS011;396;52.558;13.188;2023-05-14T04:30:19;12.43;;;5.30;;
828;SDS011;396;52.558;13.188;2023-05-14T04:32:46;9.73;;;5.10;;
828;SDS011;396;52.558;13.188;2023-05-14T04:35:12;11.93;;;5.23;;
828;SDS011;396;52.558;13.188;2023-05-14T04:37:39;14.90;;;5.43;;
828;SDS011;396;52.558;13.188;2023-05-14T04:40:06;12.70;;;5.37;;
828;SDS011;396;52.558;13.188;2023-05-14T04:42:35;25.73;;;5.97;;
828;SDS011;396;52.558;13.188;2023-05-14T04:45:03;15.73;;;5.20;;
828;SDS011;396;52.558;13.188;2023-05-14T04:47:30;9.73;;;4.83;;
828;SDS011;396;52.558;13.188;2023-05-14T04:49:57;11.97;;;5.37;;
828;SDS011;396;52.558;13.188;2023-05-14T04:52:23;10.60;;;5.00;;
828;SDS011;396;52.558;13.188;2023-05-14T04:54:50;11.67;;;4.70;;
828;SDS011;396;52.558;13.188;2023-05-14T04:57:17;12.90;;;5.80;;
828;SDS011;396;52.558;13.188;2023-05-14T04:59:43;8.73;;;4.70;;
828;SDS011;396;52.558;13.188;2023-05-14T05:02:11;11.17;;;5.03;;
828;SDS011;396;52.558;13.188;2023-05-14T05:04:38;13.17;;;5.87;;
828;SDS011;396;52.558;13.188;2023-05-14T05:07:04;9.60;;;4.80;;
828;SDS011;396;52.558;13.188;2023-05-14T05:09:31;9.63;;;4.17;;
828;SDS011;396;52.558;13.188;2023-05-14T05:11:58;10.60;;;4.97;;
828;SDS011;396;52.558;13.188;2023-05-14T05:14:25;11.60;;;5.03;;
828;SDS011;396;52.558;13.188;2023-05-14T05:16:52;8.77;;;4.37;;
828;SDS011;396;52.558;13.188;2023-05-14T05:19:20;8.53;;;3.93;;
828;SDS011;396;52.558;13.188;2023-05-14T05:21:46;10.20;;;4.53;;
828;SDS011;396;52.558;13.188;2023-05-14T05:24:13;10.40;;;4.80;;
828;SDS011;396;52.558;13.188;2023-05-14T05:26:39;9.70;;;4.33;;
828;SDS011;396;52.558;13.188;2023-05-14T05:29:06;10.77;;;4.77;;
828;SDS011;396;52.558;13.188;2023-05-14T05:31:32;9.17;;;4.13;;
828;SDS011;396;52.558;13.188;2023-05-14T05:34:01;10.10;;;3.80;;
828;SDS011;396;52.558;13.188;2023-05-14T05:36:29;11.03;;;4.33;;
828;SDS011;396;52.558;13.188;2023-05-14T05:38:56;9.40;;;4.47;;
828;SDS011;396;52.558;13.188;2023-05-14T05:41:22;9.27;;;3.97;;
828;SDS011;396;52.558;13.188;2023-05-14T05:43:49;10.73;;;4.50;;
828;SDS011;396;52.558;13.188;2023-05-14T05:46:15;7.90;;;3.63;;
828;SDS011;396;52.558;13.188;2023-05-14T05:48:42;9.43;;;4.00;;
828;SDS011;396;52.558;13.188;2023-05-14T05:51:09;11.03;;;4.50;;
828;SDS011;396;52.558;13.188;2023-05-14T05:53:37;7.47;;;3.67;;
828;SDS011;396;52.558;13.188;2023-05-14T05:56:04;9.60;;;4.20;;
828;SDS011;396;52.558;13.188;2023-05-14T05:58:31;9.07;;;4.33;;
828;SDS011;396;52.558;13.188;2023-05-14T06:00:58;9.43;;;4.10;;
828;SDS011;396;52.558;13.188;2023-05-14T06:03:25;10.90;;;4.47;;
828;SDS011;396;52.558;13.188;2023-05-14T06:05:52;10.07;;;3.90;;
828;SDS011;396;52.558;13.188;2023-05-14T06:08:18;7.60;;;3.53;;
828;SDS011;396;52.558;13.188;2023-05-14T06:10:46;9.80;;;4.47;;
828;SDS011;396;52.558;13.188;2023-05-14T06:13:13;7.83;;;3.47;;
828;SDS011;396;52.558;13.188;2023-05-14T06:15:39;7.40;;;3.40;;
828;SDS011;396;52.558;13.188;2023-05-14T06:18:06;12.90;;;4.43;;
828;SDS011;396;52.558;13.188;2023-05-14T06:20:33;8.77;;;3.50;;
828;SDS011;396;52.558;13.188;2023-05-14T06:22:59;7.50;;;3.20;;
828;SDS011;396;52.558;13.188;2023-05-14T06:25:26;6.07;;;2.50;;
828;SDS011;396;52.558;13.188;2023-05-14T06:27:54;7.37;;;3.10;;
828;SDS011;396;52.558;13.188;2023-05-14T06:30:21;6.83;;;2.80;;
828;SDS011;396;52.558;13.188;2023-05-14T06:32:47;10.67;;;3.97;;
828;SDS011;396;52.558;13.188;2023-05-14T06:35:14;10.90;;;3.67;;
828;SDS011;396;52.558;13.188;2023-05-14T06:37:41;7.97;;;3.27;;
828;SDS011;396;52.558;13.188;2023-05-14T06:40:07;6.83;;;2.50;;
828;SDS011;396;52.558;13.188;2023-05-14T06:42:35;12.13;;;2.60;;
828;SDS011;396;52.558;13.188;2023-05-14T06:45:03;7.70;;;3.03;;
828;SDS011;396;52.558;13.188;2023-05-14T06:47:30;7.10;;;3.07;;
828;SDS011;396;52.558;13.188;2023-05-14T06:49:57;7.47;;;2.50;;
828;SDS011;396;52.558;13.188;2023-05-14T06:52:25;6.50;;;2.20;;
828;SDS011;396;52.558;13.188;2023-05-14T06:54:52;7.03;;;2.77;;
828;SDS011;396;52.558;13.188;2023-05-14T06:57:19;8.20;;;2.70;;
828;SDS011;396;52.558;13.188;2023-05-14T06:59:46;11.23;;;2.70;;
828;SDS011;396;52.558;13.188;2023-05-14T07:02:14;6.13;;;2.10;;
828;SDS011;396;52.558;13.188;2023-05-14T07:04:40;6.67;;;2.80;;
828;SDS011;396;52.558;13.188;2023-05-14T07:07:07;8.53;;;2.60;;
828;SDS011;396;52.558;13.188;2023-05-14T07:09:34;6.90;;;2.60;;
828;SDS011;396;52.558;13.188;2023-05-14T07:12:01;7.73;;;2.30;;
828;SDS011;396;52.558;13.188;2023-05-14T07:14:27;7.40;;;2.70;;
828;SDS011;396;52.558;13.188;2023-05-14T07:16:54;7.13;;;2.50;;
828;SDS011;396;52.558;13.188;2023-05-14T07:19:22;7.83;;;2.87;;
828;SDS011;396;52.558;13.188;2023-05-14T07:21:49;10.83;;;2.87;;
828;SDS011;396;52.558;13.188;2023-05-14T07:24:15;7.00;;;2.70;;
828;SDS011;396;52.558;13.188;2023-05-14T07:26:42;6.80;;;2.60;;
828;SDS011;396;52.558;13.188;2023-05-14T07:29:09;12.50;;;2.60;;
828;SDS011;396;52.558;13.188;2023-05-14T07:31:35;6.93;;;2.57;;
828;SDS011;396;52.558;13.188;2023-05-14T07:34:02;6.97;;;2.27;;
828;SDS011;396;52.558;13.188;2023-05-14T07:36:30;7.83;;;2.10;;
828;SDS011;396;52.558;13.188;2023-05-14T07:38:56;5.27;;;1.60;;
828;SDS011;396;52.558;13.188;2023-05-14T07:41:23;8.30;;;2.80;;
828;SDS011;396;52.558;13.188;2023-05-14T07:43:50;7.70;;;2.30;;
828;SDS011;396;52.558;13.188;2023-05-14T07:46:16;6.33;;;2.50;;
828;SDS011;396;52.558;13.188;2023-05-14T07:48:43;6.17;;;2.27;;
828;SDS011;396;52.558;13.188;2023-05-14T07:51:09;9.30;;;2.53;;
828;SDS011;396;52.558;13.188;2023-05-14T07:53:37;6.70;;;2.47;;
828;SDS011;396;52.558;13.188;2023-05-14T07:56:04;6.97;;;2.10;;
828;SDS011;396;52.558;13.188;2023-05-14T07:58:31;9.53;;;2.30;;
828;SDS011;396;52.558;13.188;2023-05-14T08:00:59;5.50;;;1.87;;
828;SDS011;396;52.558;13.188;2023-05-14T08:03:27;6.20;;;1.90;;
828;SDS011;396;52.558;13.188;2023-05-14T08:05:54;7.57;;;2.27;;
828;SDS011;396;52.558;13.188;2023-05-14T08:08:21;6.50;;;2.40;;
828;SDS011;396;52.558;13.188;2023-05-14T08:10:48;6.90;;;2.93;;
828;SDS011;396;52.558;13.188;2023-05-14T08:13:16;6.30;;;1.77;;
828;SDS011;396;52.558;13.188;2023-05-14T08:15:42;8.67;;;2.33;;
828;SDS011;396;52.558;13.188;2023-05-14T08:18:09;6.70;;;2.40;;
828;SDS011;396;52.558;13.188;2023-05-14T08:20:35;6.40;;;2.20;;
828;SDS011;396;52.558;13.188;2023-05-14T08:23:02;6.97;;;2.00;;
828;SDS011;396;52.558;13.188;2023-05-14T08:25:28;6.33;;;1.93;;
828;SDS011;396;52.558;13.188;2023-05-14T08:27:56;4.80;;;1.60;;
828;SDS011;396;52.558;13.188;2023-05-14T08:30:23;6.40;;;2.07;;
828;SDS011;396;52.558;13.188;2023-05-14T08:32:50;6.23;;;1.90;;
828;SDS011;396;52.558;13.188;2023-05-14T08:35:17;6.40;;;1.93;;
828;SDS011;396;52.558;13.188;2023-05-14T08:37:44;5.60;;;1.70;;
828;SDS011;396;52.558;13.188;2023-05-14T08:40:11;6.50;;;1.80;;
828;SDS011;396;52.558;13.188;2023-05-14T08:42:38;6.20;;;1.87;;
828;SDS011;396;52.558;13.188;2023-05-14T08:45:08;5.80;;;1.90;;
828;SDS011;396;52.558;13.188;2023-05-14T08:47:39;6.40;;;2.13;;
828;SDS011;396;52.558;13.188;2023-05-14T08:50:06;6.43;;;2.40;;
828;SDS011;396;52.558;13.188;2023-05-14T08:52:34;5.37;;;1.97;;
828;SDS011;396;52.558;13.188;2023-05-14T08:55:02;15.27;;;2.27;;
828;SDS011;396;52.558;13.188;2023-05-14T08:57:30;5.67;;;2.00;;
828;SDS011;396;52.558;13.188;2023-05-14T08:59:58;6.60;;;2.20;;
828;SDS011;396;52.558;13.188;2023-05-14T09:02:27;7.17;;;2.70;;
828;SDS011;396;52.558;13.188;2023-05-14T09:04:56;6.47;;;2.00;;
828;SDS011;396;52.558;13.188;2023-05-14T09:07:24;7.07;;;2.40;;
828;SDS011;396;52.558;13.188;2023-05-14T09:09:51;11.13;;;2.60;;
828;SDS011;396;52.558;13.188;2023-05-14T09:12:18;5.93;;;2.07;;
828;SDS011;396;52.558;13.188;2023-05-14T09:14:46;5.40;;;1.83;;
828;SDS011;396;52.558;13.188;2023-05-14T09:17:14;6.70;;;2.00;;
828;SDS011;396;52.558;13.188;2023-05-14T09:19:43;5.80;;;2.10;;
828;SDS011;396;52.558;13.188;2023-05-14T09:22:12;5.70;;;1.93;;
828;SDS011;396;52.558;13.188;2023-05-14T09:24:40;7.00;;;2.17;;
828;SDS011;396;52.558;13.188;2023-05-14T09:27:08;5.60;;;2.00;;
828;SDS011;396;52.558;13.188;2023-05-14T09:29:35;5.77;;;1.67;;
828;SDS011;396;52.558;13.188;2023-05-14T09:32:02;7.90;;;2.40;;
828;SDS011;396;52.558;13.188;2023-05-14T09:34:32;5.80;;;2.10;;
828;SDS011;396;52.558;13.188;2023-05-14T09:37:03;6.60;;;2.43;;
828;SDS011;396;52.558;13.188;2023-05-14T09:39:32;6.57;;;2.17;;
828;SDS011;396;52.558;13.188;2023-05-14T09:42:00;6.30;;;1.77;;
828;SDS011;396;52.558;13.188;2023-05-14T09:44:27;6.67;;;2.40;;
828;SDS011;396;52.558;13.188;2023-05-14T09:46:54;6.97;;;2.03;;
828;SDS011;396;52.558;13.188;2023-05-14T09:49:21;6.20;;;2.10;;
828;SDS011;396;52.558;13.188;2023-05-14T09:51:48;6.27;;;2.07;;
828;SDS011;396;52.558;13.188;2023-05-14T09:54:16;5.60;;;1.87;;
828;SDS011;396;52.558;13.188;2023-05-14T09:56:43;6.87;;;1.67;;
828;SDS011;396;52.558;13.188;2023-05-14T09:59:10;5.87;;;1.87;;
828;SDS011;396;52.558;13.188;2023-05-14T10:01:36;5.60;;;1.80;;
828;SDS011;396;52.558;13.188;2023-05-14T10:04:05;6.67;;;2.07;;
828;SDS011;396;52.558;13.188;2023-05-14T10:06:34;6.10;;;2.00;;
828;SDS011;396;52.558;13.188;2023-05-14T10:09:03;6.30;;;1.97;;
828;SDS011;396;52.558;13.188;2023-05-14T10:11:35;6.13;;;1.77;;
828;SDS011;396;52.558;13.188;2023-05-14T10:14:04;5.33;;;1.90;;
828;SDS011;396;52.558;13.188;2023-05-14T10:16:35;5.67;;;1.97;;
828;SDS011;396;52.558;13.188;2023-05-14T10:19:07;6.47;;;1.80;;
828;SDS011;396;52.558;13.188;2023-05-14T10:21:35;5.67;;;1.70;;
828;SDS011;396;52.558;13.188;2023-05-14T10:24:03;6.17;;;2.17;;
828;SDS011;396;52.558;13.188;2023-05-14T10:26:31;6.53;;;2.23;;
828;SDS011;396;52.558;13.188;2023-05-14T10:29:00;8.27;;;2.73;;
828;SDS011;396;52.558;13.188;2023-05-14T10:36:57;5.37;;;2.10;;
828;SDS011;396;52.558;13.188;2023-05-14T10:39:38;5.97;;;2.00;;
828;SDS011;396;52.558;13.188;2023-05-14T10:42:09;5.60;;;2.10;;
828;SDS011;396;52.558;13.188;2023-05-14T10:44:40;6.07;;;2.27;;
828;SDS011;396;52.558;13.188;2023-05-14T10:47:12;5.53;;;2.33;;
828;SDS011;396;52.558;13.188;2023-05-14T10:49:40;5.50;;;1.73;;
828;SDS011;396;52.558;13.188;2023-05-14T10:52:07;6.57;;;2.13;;
828;SDS011;396;52.558;13.188;2023-05-14T10:54:34;6.20;;;2.00;;
828;SDS011;396;52.558;13.188;2023-05-14T10:57:01;6.00;;;2.03;;
828;SDS011;396;52.558;13.188;2023-05-14T10:59:27;5.60;;;2.20;;
828;SDS011;396;52.558;13.188;2023-05-14T11:01:56;7.53;;;2.13;;
828;SDS011;396;52.558;13.188;2023-05-14T11:04:23;7.80;;;2.47;;
828;SDS011;396;52.558;13.188;2023-05-14T11:06:50;5.10;;;1.90;;
828;SDS011;396;52.558;13.188;2023-05-14T11:09:18;6.33;;;2.00;;
828;SDS011;396;52.558;13.188;2023-05-14T11:11:46;6.90;;;2.93;;
828;SDS011;396;52.558;13.188;2023-05-14T11:14:13;8.43;;;2.40;;
828;SDS011;396;52.558;13.188;2023-05-14T11:16:39;6.33;;;2.40;;
828;SDS011;396;52.558;13.188;2023-05-14T11:19:07;6.30;;;2.17;;
828;SDS011;396;52.558;13.188;2023-05-14T11:21:35;6.87;;;2.33;;
828;SDS011;396;52.558;13.188;2023-05-14T11:24:02;13.03;;;2.47;;
828;SDS011;396;52.558;13.188;2023-05-14T11:26:30;5.40;;;2.20;;
828;SDS011;396;52.558;13.188;2023-05-14T11:28:57;5.47;;;1.97;;
828;SDS011;396;52.558;13.188;2023-05-14T11:31:24;6.30;;;1.97;;
828;SDS011;396;52.558;13.188;2023-05-14T11:33:50;8.90;;;2.77;;
828;SDS011;396;52.558;13.188;2023-05-14T11:36:19;5.97;;;2.00;;
828;SDS011;396;52.558;13.188;2023-05-14T11:38:46;5.33;;;1.60;;
828;SDS011;396;52.558;13.188;2023-05-14T11:41:15;7.10;;;1.97;;
828;SDS011;396;52.558;13.188;2023-05-14T11:43:42;5.33;;;1.73;;
828;SDS011;396;52.558;13.188;2023-05-14T11:46:14;7.40;;;2.73;;
828;SDS011;396;52.558;13.188;2023-05-14T11:48:42;8.03;;;2.40;;
828;SDS011;396;52.558;13.188;2023-05-14T11:51:08;5.70;;;2.03;;
828;SDS011;396;52.558;13.188;2023-05-14T11:53:36;6.20;;;2.47;;
828;SDS011;396;52.558;13.188;2023-05-14T11:56:03;7.80;;;2.10;;
828;SDS011;396;52.558;13.188;2023-05-14T11:58:30;5.53;;;1.80;;
828;SDS011;396;52.558;13.188;2023-05-14T12:00:57;5.93;;;2.30;;
828;SDS011;396;52.558;13.188;2023-05-14T12:03:24;6.10;;;2.20;;
828;SDS011;396;52.558;13.188;2023-05-14T12:05:53;6.03;;;2.10;;
828;SDS011;396;52.558;13.188;2023-05-14T12:08:21;6.87;;;2.00;;
828;SDS011;396;52.558;13.188;2023-05-14T12:10:52;8.00;;;2.10;;
828;SDS011;396;52.558;13.188;2023-05-14T12:13:19;8.10;;;2.77;;
828;SDS011;396;52.558;13.188;2023-05-14T12:15:46;6.83;;;2.77;;
828;SDS011;396;52.558;13.188;2023-05-14T12:18:19;5.97;;;2.23;;
828;SDS011;396;52.558;13.188;2023-05-14T12:20:46;5.20;;;1.70;;
828;SDS011;396;52.558;13.188;2023-05-14T12:23:13;6.33;;;2.17;;
828;SDS011;396;52.558;13.188;2023-05-14T12:25:40;5.63;;;2.03;;
828;SDS011;396;52.558;13.188;2023-05-14T12:28:16;6.10;;;2.17;;
828;SDS011;396;52.558;13.188;2023-05-14T12:30:44;5.60;;;1.97;;
828;SDS011;396;52.558;13.188;2023-05-14T12:33:11;6.60;;;2.83;;
828;SDS011;396;52.558;13.188;2023-05-14T12:35:38;6.40;;;2.20;;
828;SDS011;396;52.558;13.188;2023-05-14T12:38:04;6.30;;;1.70;;
828;SDS011;396;52.558;13.188;2023-05-14T12:40:31;6.43;;;2.30;;
828;SDS011;396;52.558;13.188;2023-05-14T12:42:58;6.43;;;2.10;;
828;SDS011;396;52.558;13.188;2023-05-14T12:45:26;6.07;;;1.83;;
828;SDS011;396;52.558;13.188;2023-05-14T12:47:52;7.30;;;2.90;;
828;SDS011;396;52.558;13.188;2023-05-14T12:50:19;6.60;;;2.27;;
828;SDS011;396;52.558;13.188;2023-05-14T12:52:46;6.13;;;2.33;;
828;SDS011;396;52.558;13.188;2023-05-14T12:55:12;7.10;;;1.87;;
828;SDS011;396;52.558;13.188;2023-05-14T12:57:39;6.97;;;2.40;;
828;SDS011;396;52.558;13.188;2023-05-14T13:00:07;7.37;;;2.60;;
828;SDS011;396;52.558;13.188;2023-05-14T13:02:36;5.60;;;1.87;;
828;SDS011;396;52.558;13.188;2023-05-14T13:05:03;5.33;;;1.73;;
828;SDS011;396;52.558;13.188;2023-05-14T13:07:30;6.10;;;2.30;;
828;SDS011;396;52.558;13.188;2023-05-14T13:09:57;7.23;;;2.17;;
828;SDS011;396;52.558;13.188;2023-05-14T13:12:23;6.03;;;2.30;;
828;SDS011;396;52.558;13.188;2023-05-14T13:14:50;7.00;;;2.20;;
828;SDS011;396;52.558;13.188;2023-05-14T13:17:17;5.40;;;1.67;;
828;SDS011;396;52.558;13.188;2023-05-14T13:19:45;7.27;;;2.20;;
828;SDS011;396;52.558;13.188;2023-05-14T13:22:11;6.17;;;2.40;;
828;SDS011;396;52.558;13.188;2023-05-14T13:24:38;6.37;;;2.10;;
828;SDS011;396;52.558;13.188;2023-05-14T13:27:05;5.93;;;2.17;;
828;SDS011;396;52.558;13.188;2023-05-14T13:29:31;9.10;;;2.47;;
828;SDS011;396;52.558;13.188;2023-05-14T13:31:58;5.97;;;1.90;;
828;SDS011;396;52.558;13.188;2023-05-14T13:34:25;8.13;;;2.60;;
828;SDS011;396;52.558;13.188;2023-05-14T13:36:52;8.30;;;2.20;;
828;SDS011;396;52.558;13.188;2023-05-14T13:39:19;5.47;;;1.70;;
828;SDS011;396;52.558;13.188;2023-05-14T13:41:50;8.00;;;1.93;;
828;SDS011;396;52.558;13.188;2023-05-14T13:44:17;5.43;;;2.10;;
828;SDS011;396;52.558;13.188;2023-05-14T13:46:44;6.87;;;2.20;;
828;SDS011;396;52.558;13.188;2023-05-14T13:49:10;5.97;;;1.70;;
828;SDS011;396;52.558;13.188;2023-05-14T13:51:37;5.47;;;1.87;;
828;SDS011;396;52.558;13.188;2023-05-14T13:54:05;8.63;;;2.27;;
828;SDS011;396;52.558;13.188;2023-05-14T13:56:31;6.70;;;2.00;;
828;SDS011;396;52.558;13.188;2023-05-14T13:58:58;7.00;;;2.03;;
828;SDS011;396;52.558;13.188;2023-05-14T14:01:25;7.37;;;2.20;;
828;SDS011;396;52.558;13.188;2023-05-14T14:03:51;6.60;;;1.97;;
828;SDS011;396;52.558;13.188;2023-05-14T14:06:18;11.40;;;2.60;;
828;SDS011;396;52.558;13.188;2023-05-14T14:08:44;6.40;;;2.40;;
828;SDS011;396;52.558;13.188;2023-05-14T14:11:12;6.30;;;2.47;;
828;SDS011;396;52.558;13.188;2023-05-14T14:13:39;6.60;;;2.33;;
828;SDS011;396;52.558;13.188;2023-05-14T14:16:06;6.70;;;2.43;;
828;SDS011;396;52.558;13.188;2023-05-14T14:18:32;5.53;;;1.93;;
828;SDS011;396;52.558;13.188;2023-05-14T14:20:59;5.37;;;1.70;;
828;SDS011;396;52.558;13.188;2023-05-14T14:23:25;5.43;;;1.50;;
828;SDS011;396;52.558;13.188;2023-05-14T14:25:52;5.83;;;2.27;;
828;SDS011;396;52.558;13.188;2023-05-14T14:28:20;6.73;;;2.07;;
828;SDS011;396;52.558;13.188;2023-05-14T14:30:46;6.40;;;2.47;;
828;SDS011;396;52.558;13.188;2023-05-14T14:33:13;5.00;;;1.90;;
828;SDS011;396;52.558;13.188;2023-05-14T14:35:40;6.30;;;2.03;;
828;SDS011;396;52.558;13.188;2023-05-14T14:38:06;9.93;;;2.73;;
828;SDS011;396;52.558;13.188;2023-05-14T14:40:33;6.50;;;2.37;;
828;SDS011;396;52.558;13.188;2023-05-14T14:43:00;5.20;;;1.63;;
828;SDS011;396;52.558;13.188;2023-05-14T14:45:28;6.77;;;2.20;;
828;SDS011;396;52.558;13.188;2023-05-14T14:50:49;5.60;;;2.40;;
828;SDS011;396;52.558;13.188;2023-05-14T14:53:16;5.47;;;1.93;;
828;SDS011;396;52.558;13.188;2023-05-14T14:55:42;5.63;;;1.77;;
828;SDS011;396;52.558;13.188;2023-05-14T14:58:09;5.83;;;2.13;;
828;SDS011;396;52.558;13.188;2023-05-14T15:00:37;7.17;;;2.73;;
828;SDS011;396;52.558;13.188;2023-05-14T15:03:04;5.30;;;1.80;;
828;SDS011;396;52.558;13.188;2023-05-14T15:05:30;6.40;;;1.97;;
828;SDS011;396;52.558;13.188;2023-05-14T15:07:57;5.43;;;2.20;;
828;SDS011;396;52.558;13.188;2023-05-14T15:10:25;5.60;;;2.30;;
828;SDS011;396;52.558;13.188;2023-05-14T15:12:52;7.27;;;2.40;;
828;SDS011;396;52.558;13.188;2023-05-14T15:15:19;6.67;;;2.23;;
828;SDS011;396;52.558;13.188;2023-05-14T15:17:47;8.10;;;2.60;;
828;SDS011;396;52.558;13.188;2023-05-14T15:20:13;8.73;;;2.20;;
828;SDS011;396;52.558;13.188;2023-05-14T15:22:40;5.60;;;1.80;;
828;SDS011;396;52.558;13.188;2023-05-14T15:25:07;5.87;;;2.33;;
828;SDS011;396;52.558;13.188;2023-05-14T15:27:34;5.73;;;2.20;;
828;SDS011;396;52.558;13.188;2023-05-14T15:30:01;9.90;;;2.43;;
828;SDS011;396;52.558;13.188;2023-05-14T15:32:28;8.83;;;2.50;;
828;SDS011;396;52.558;13.188;2023-05-14T15:34:57;6.20;;;2.40;;